createdAt,value
2022-11-26T00:03:33.529Z,3.13
2022-11-26T00:08:36.905Z,3.95
2022-11-26T00:13:41.405Z,2.63
2022-11-26T00:18:44.863Z,2.20
2022-11-26T00:23:47.898Z,3.10
2022-11-26T00:28:54.313Z,2.47
2022-11-26T00:33:57.494Z,3.38
2022-11-26T00:39:04.315Z,4.85
2022-11-26T00:44:18.336Z,3.25
2022-11-26T00:49:21.898Z,2.05
2022-11-26T00:54:25.250Z,2.25
2022-11-26T00:59:29.647Z,3.03
2022-11-26T01:04:33.462Z,2.55
2022-11-26T01:09:36.427Z,2.55
2022-11-26T01:14:40.870Z,2.35
2022-11-26T01:19:43.889Z,3.05
2022-11-26T01:24:46.886Z,2.20
2022-11-26T01:29:51.307Z,2.17
2022-11-26T01:34:54.306Z,2.40
2022-11-26T01:39:57.274Z,1.90
2022-11-26T01:45:01.633Z,2.75
2022-11-26T01:50:42.146Z,1.83
2022-11-26T01:55:49.025Z,2.15
2022-11-26T02:00:53.531Z,2.22
2022-11-26T02:06:02.528Z,2.05
2022-11-26T02:11:17.188Z,2.20
2022-11-26T02:16:34.891Z,2.30
2022-11-26T02:21:42.392Z,1.70
2022-11-26T02:27:05.005Z,2.08
2022-11-26T02:32:13.166Z,3.03
2022-11-26T02:37:21.357Z,2.28
2022-11-26T02:42:26.870Z,2.15
2022-11-26T02:47:32.911Z,2.70
2022-11-26T02:52:37.643Z,2.03
2022-11-26T02:57:47.562Z,2.10
2022-11-26T03:02:57.155Z,1.90
2022-11-26T03:08:00.888Z,2.05
2022-11-26T03:13:03.988Z,2.20
2022-11-26T03:18:08.568Z,2.67
2022-11-26T03:23:11.817Z,1.90
2022-11-26T03:28:15.732Z,2.47
2022-11-26T03:33:20.621Z,1.63
2022-11-26T03:38:23.605Z,1.75
2022-11-26T03:43:26.694Z,1.73
2022-11-26T03:48:31.339Z,1.80
2022-11-26T03:53:34.469Z,2.65
2022-11-26T03:58:37.535Z,2.45
2022-11-26T04:03:42.659Z,1.92
2022-11-26T04:08:45.814Z,2.60
2022-11-26T04:13:48.883Z,2.25
2022-11-26T04:18:53.361Z,1.90
2022-11-26T04:23:56.427Z,1.70
2022-11-26T04:28:59.527Z,2.13
2022-11-26T04:34:03.922Z,3.47
2022-11-26T04:39:07.926Z,1.92
2022-11-26T04:44:10.957Z,1.60
2022-11-26T04:49:15.399Z,2.10
2022-11-26T04:54:18.426Z,2.17
2022-11-26T04:59:21.552Z,2.50
2022-11-26T05:04:25.985Z,2.10
2022-11-26T05:09:29.043Z,2.83
2022-11-26T05:14:32.141Z,1.92
2022-11-26T05:19:36.510Z,2.33
2022-11-26T05:24:39.713Z,2.80
2022-11-26T05:29:42.895Z,2.47
2022-11-26T05:34:47.316Z,2.28
2022-11-26T05:39:50.467Z,1.88
2022-11-26T05:44:53.502Z,2.75
2022-11-26T05:49:58.152Z,2.92
2022-11-26T05:55:01.152Z,1.70
2022-11-26T06:00:04.872Z,2.67
2022-11-26T06:05:10.126Z,4.85
2022-11-26T06:10:13.662Z,2.05
2022-11-26T06:15:16.862Z,1.77
2022-11-26T06:20:21.232Z,3.72
2022-11-26T06:25:24.201Z,1.73
2022-11-26T06:30:27.213Z,4.00
2022-11-26T06:35:31.557Z,3.03
2022-11-26T06:40:34.575Z,2.53
2022-11-26T06:45:37.626Z,2.67
2022-11-26T06:50:42.059Z,3.70
2022-11-26T06:55:45.129Z,4.65
2022-11-26T07:00:48.110Z,4.40
2022-11-26T07:05:52.936Z,4.03
2022-11-26T07:10:55.894Z,5.40
2022-11-26T07:16:02.864Z,6.07
2022-11-26T07:21:08.799Z,8.07
2022-11-26T07:26:13.176Z,6.70
2022-11-26T07:31:18.128Z,16.33
2022-11-26T07:36:24.892Z,16.40
2022-11-26T07:41:29.339Z,15.65
2022-11-26T07:46:32.363Z,14.70
2022-11-26T07:51:36.902Z,12.07
2022-11-26T07:56:39.913Z,14.95
2022-11-26T08:01:43.004Z,17.70
2022-11-26T08:06:47.453Z,16.30
2022-11-26T08:11:50.451Z,12.30
2022-11-26T08:16:53.454Z,11.85
2022-11-26T08:21:57.886Z,13.10
2022-11-26T08:27:01.294Z,10.90
2022-11-26T08:32:04.839Z,9.23
2022-11-26T08:37:09.257Z,10.73
2022-11-26T08:42:12.257Z,10.90
2022-11-26T08:47:15.209Z,10.65
2022-11-26T08:52:19.834Z,8.18
2022-11-26T08:57:22.800Z,8.75
2022-11-26T09:02:25.774Z,5.88
2022-11-26T09:07:30.835Z,7.05
2022-11-26T09:12:33.904Z,7.68
2022-11-26T09:17:36.962Z,6.63
2022-11-26T09:22:41.307Z,5.95
2022-11-26T09:27:44.292Z,4.97
2022-11-26T09:32:47.324Z,5.32
2022-11-26T09:37:51.982Z,8.45
2022-11-26T09:43:06.570Z,6.75
2022-11-26T09:48:16.166Z,5.43
2022-11-26T09:53:23.480Z,5.57
2022-11-26T09:58:31.353Z,4.82
2022-11-26T10:03:35.817Z,6.25
2022-11-26T10:09:12.374Z,6.75
2022-11-26T10:14:29.125Z,12.05
2022-11-26T10:19:43.209Z,22.65
2022-11-26T10:24:49.950Z,9.23
2022-11-26T10:29:56.112Z,12.35
2022-11-26T10:34:59.937Z,13.55
2022-11-26T10:40:19.428Z,14.35
2022-11-26T10:45:25.132Z,14.35
2022-11-26T10:55:54.831Z,21.15
2022-11-26T11:01:03.489Z,17.90
2022-11-26T11:06:29.233Z,19.05
2022-11-26T11:11:33.651Z,14.20
2022-11-26T11:16:42.323Z,23.08
2022-11-26T11:21:48.347Z,21.30
2022-11-26T11:26:56.286Z,22.05
2022-11-26T11:31:59.897Z,17.45
2022-11-26T11:37:04.917Z,19.17
2022-11-26T11:42:21.857Z,22.63
2022-11-26T11:47:37.244Z,21.10
2022-11-26T11:52:54.581Z,22.85
2022-11-26T11:58:20.641Z,23.80
2022-11-26T12:03:55.561Z,20.80
2022-11-26T12:09:08.925Z,20.50
2022-11-26T12:14:20.126Z,22.42
2022-11-26T12:19:30.476Z,15.73
2022-11-26T12:24:39.336Z,18.42
2022-11-26T12:29:48.597Z,17.95
2022-11-26T12:34:54.065Z,15.70
2022-11-26T12:40:03.768Z,19.80
2022-11-26T12:45:19.742Z,15.07
2022-11-26T12:50:35.085Z,15.43
2022-11-26T12:55:44.573Z,16.88
2022-11-26T13:00:49.765Z,14.40
2022-11-26T13:05:57.749Z,13.25
2022-11-26T13:11:16.341Z,15.80
2022-11-26T13:16:34.678Z,14.13
2022-11-26T13:22:17.907Z,11.93
2022-11-26T13:27:50.741Z,13.27
2022-11-26T13:33:50.731Z,18.13
2022-11-26T13:39:15.021Z,13.00
2022-11-26T13:44:42.765Z,13.60
2022-11-26T13:49:53.261Z,12.10
2022-11-26T13:54:59.637Z,14.23
2022-11-26T14:00:03.961Z,13.02
2022-11-26T14:05:09.934Z,11.88
2022-11-26T14:10:42.300Z,9.23
2022-11-26T14:16:04.841Z,9.45
2022-11-26T14:21:15.861Z,9.18
2022-11-26T14:26:23.325Z,8.60
2022-11-26T14:31:30.846Z,10.93
2022-11-26T14:36:35.817Z,11.40
2022-11-26T14:41:52.529Z,10.10
2022-11-26T14:46:59.227Z,11.30
2022-11-26T14:52:07.073Z,7.82
2022-11-26T14:57:15.900Z,10.65
2022-11-26T15:02:22.632Z,9.10
2022-11-26T15:07:27.544Z,12.90
2022-11-26T15:12:31.552Z,14.38
2022-11-26T15:17:35.749Z,14.07
2022-11-26T15:22:44.353Z,12.25
2022-11-26T15:27:55.280Z,13.50
2022-11-26T15:33:03.582Z,11.05
2022-11-26T15:38:13.990Z,11.55
2022-11-26T15:43:22.838Z,19.33
2022-11-26T15:48:50.576Z,10.25
2022-11-26T15:53:54.325Z,9.05
2022-11-26T15:59:01.589Z,6.82
2022-11-26T16:04:06.578Z,8.05
2022-11-26T16:09:28.278Z,8.10
2022-11-26T16:14:34.199Z,8.70
2022-11-26T16:19:38.330Z,6.82
2022-11-26T16:24:43.918Z,7.97
2022-11-26T16:29:47.691Z,13.18
2022-11-26T16:34:50.759Z,8.35
2022-11-26T16:40:02.542Z,7.70
2022-11-26T16:45:06.501Z,17.48
2022-11-26T16:50:18.219Z,10.45
2022-11-26T16:55:25.428Z,12.30
2022-11-26T17:00:28.720Z,12.02
2022-11-26T17:05:31.681Z,11.82
2022-11-26T17:10:36.005Z,11.57
2022-11-26T17:15:39.036Z,10.48
2022-11-26T17:20:42.083Z,9.50
2022-11-26T17:25:49.655Z,11.05
2022-11-26T17:30:52.876Z,7.93
2022-11-26T17:35:56.741Z,7.65
2022-11-26T17:41:01.045Z,9.18
2022-11-26T17:46:04.675Z,8.25
2022-11-26T17:51:07.901Z,10.00
2022-11-26T17:56:18.476Z,56.72
2022-11-26T18:01:22.164Z,9.00
2022-11-26T18:06:38.559Z,8.43
2022-11-26T18:11:46.821Z,11.05
2022-11-26T18:16:50.186Z,6.55
2022-11-26T18:21:53.940Z,9.88
2022-11-26T18:26:58.809Z,7.30
2022-11-26T18:32:02.231Z,7.88
2022-11-26T18:37:05.429Z,8.60
2022-11-26T18:47:33.012Z,5.75
2022-11-26T18:52:36.138Z,8.48
2022-11-26T18:57:40.637Z,8.18
2022-11-26T19:02:44.000Z,6.78
2022-11-26T19:07:47.140Z,6.53
2022-11-26T19:12:51.645Z,30.55
2022-11-26T19:17:54.643Z,23.40
2022-11-26T19:22:57.760Z,19.13
2022-11-26T19:28:04.949Z,16.70
2022-11-26T19:33:08.362Z,17.02
2022-11-26T19:38:11.622Z,15.48
2022-11-26T19:43:15.996Z,14.50
2022-11-26T19:48:19.252Z,11.90
2022-11-26T19:53:22.613Z,18.85
2022-11-26T19:58:27.512Z,17.75
2022-11-26T20:03:35.758Z,18.77
2022-11-26T20:08:40.475Z,14.93
2022-11-26T20:13:46.415Z,11.10
2022-11-26T20:18:49.860Z,16.55
2022-11-26T20:23:54.689Z,14.45
2022-11-26T20:29:02.322Z,10.60
2022-11-26T20:34:06.028Z,11.65
2022-11-26T20:39:09.209Z,10.52
2022-11-26T20:44:14.692Z,14.18
2022-11-26T20:49:17.928Z,10.23
2022-11-26T20:54:20.989Z,15.70
2022-11-26T20:59:25.833Z,14.45
2022-11-26T21:04:28.970Z,11.48
2022-11-26T21:09:32.163Z,10.70
2022-11-26T21:14:36.591Z,11.90
2022-11-26T21:19:39.859Z,14.18
2022-11-26T21:24:43.321Z,10.80
2022-11-26T21:29:47.969Z,9.02
2022-11-26T21:34:51.094Z,9.23
2022-11-26T21:39:54.248Z,13.73
2022-11-26T21:44:58.730Z,11.65
2022-11-26T21:50:01.842Z,14.23
2022-11-26T21:55:05.472Z,12.13
2022-11-26T22:00:11.382Z,8.85
2022-11-26T22:05:14.601Z,8.45
2022-11-26T22:10:17.909Z,8.82
2022-11-26T22:15:22.277Z,9.32
2022-11-26T22:20:25.342Z,7.53
2022-11-26T22:25:28.407Z,9.40
2022-11-26T22:30:32.814Z,6.90
2022-11-26T22:35:36.424Z,9.85
2022-11-26T22:40:39.486Z,7.68
2022-11-26T22:45:43.931Z,8.68
2022-11-26T22:50:51.946Z,7.85
2022-11-26T22:55:56.938Z,9.88
2022-11-26T23:01:03.453Z,7.40
2022-11-26T23:06:09.055Z,5.88
2022-11-26T23:11:15.408Z,7.40
2022-11-26T23:16:21.861Z,8.48
2022-11-26T23:21:27.341Z,5.30
2022-11-26T23:26:33.093Z,6.28
2022-11-26T23:31:39.047Z,7.10
2022-11-26T23:36:42.569Z,7.03
2022-11-26T23:41:45.552Z,8.25
2022-11-26T23:46:49.867Z,5.57
2022-11-26T23:51:52.876Z,6.38
2022-11-26T23:56:55.871Z,5.93
